MSC Divina — 3FFA5 — position and weather

sailwx.info

Track history (hours):
 
Tides and Currents Weather Stations Pressure Air Temp Water Temp Dewpoint Dewpoint Depression Visibility Wind Speed Wind Dir Waves Ship Positions

MSC Divina

Last reported at 2016-Dec-07 02:33 UTC. Time now 2016-Dec-08 05:58 UTC.
Position N 25°22' W 079°53'.

Length 333 m; draft 8.6 m.

Type: Ship. MMSI: 373178000.

Date/timePositionNaut miles runAvg speedWind from/ knotsBaromVisibWave heightAir tempDewpointWater temp
2016-Dec-07 02:33N 25°22' W 079°53'1514.8
2016-Dec-07 01:33N 25°36' W 079°59'1212.0
2016-Dec-07 00:33N 25°45' W 080°07'3 3.2
2016-Dec-06 23:33N 25°47' W 080°10'0 0.0
2016-Dec-06 22:33N 25°47' W 080°10'0 0.0
2016-Dec-06 21:33N 25°47' W 080°10'0 0.0
2016-Dec-06 20:33N 25°47' W 080°10'0 0.0
2016-Dec-06 18:33N 25°47' W 080°10'0 0.0
2016-Dec-06 17:33N 25°47' W 080°10'0 0.0
2016-Dec-06 16:33N 25°47' W 080°10'0 0.0
2016-Dec-06 15:33N 25°47' W 080°10'0 0.0
2016-Dec-06 14:33N 25°47' W 080°10'0 0.0
2016-Dec-06 13:33N 25°47' W 080°10'0 0.0
2016-Dec-06 12:33N 25°47' W 080°10'0 0.0
2016-Dec-06 11:33N 25°47' W 080°10'1 0.5
2016-Dec-06 10:34N 25°47' W 080°11'8 7.5
2016-Dec-06 09:34N 25°47' W 080°03'1111.1
2016-Dec-06 08:34N 25°38' W 079°55'1514.8
2016-Dec-06 07:34N 25°26' W 079°45'49415.4
2016-Dec-04 23:34N 20°34' W 086°57'3 3.1
2016-Dec-04 22:33N 20°31' W 086°57'0 0.0
2016-Dec-04 21:33N 20°31' W 086°57'0 0.0
2016-Dec-04 20:33N 20°31' W 086°57'0 0.0
2016-Dec-04 19:33N 20°31' W 086°57'0 0.0
2016-Dec-04 18:33N 20°31' W 086°57'0 0.0
2016-Dec-04 17:33N 20°31' W 086°57'0 0.0
2016-Dec-04 16:33N 20°31' W 086°57'0 0.0
2016-Dec-04 15:33N 20°31' W 086°57'0 0.0
2016-Dec-04 14:33N 20°31' W 086°57'6 6.5
2016-Dec-04 13:34N 20°28' W 087°04'  
2016-Dec-01 23:33N 09°23' W 079°55'1 1.2
2016-Dec-01 22:25N 09°21' W 079°55'0 0.0
2016-Dec-01 21:31N 09°21' W 079°55'0 0.0
2016-Dec-01 20:31N 09°21' W 079°55'0 0.0
2016-Dec-01 19:33N 09°21' W 079°55'0 0.0
2016-Dec-01 18:33N 09°21' W 079°55'0 0.0
2016-Dec-01 17:20N 09°21' W 079°55'0 0.0
2016-Dec-01 16:32N 09°21' W 079°55'0 0.0
2016-Dec-01 15:31N 09°21' W 079°55'0 0.0
2016-Dec-01 14:31N 09°21' W 079°55'1 0.6
2016-Dec-01 13:33N 09°21' W 079°55'7 6.6
2016-Dec-01 12:33N 09°28' W 079°54'  
Track history (hours):
 
Tides and Currents Weather Stations Pressure Air Temp Water Temp Dewpoint Dewpoint Depression Visibility Wind Speed Wind Dir Waves Ship Positions

MSC Divina

Last reported at 2016-Dec-07 02:33 UTC. Time now 2016-Dec-08 05:58 UTC.
Position N 25°22' W 079°53'.

Length 333 m; draft 8.6 m.

Type: Ship. MMSI: 373178000.

Date/timePositionNaut miles runAvg speedWind from/ knotsBaromVisibWave heightAir tempDewpointWater temp
2016-Dec-07 02:33N 25°22' W 079°53'1514.8
2016-Dec-07 01:33N 25°36' W 079°59'1212.0
2016-Dec-07 00:33N 25°45' W 080°07'3 3.2
2016-Dec-06 23:33N 25°47' W 080°10'0 0.0
2016-Dec-06 22:33N 25°47' W 080°10'0 0.0
2016-Dec-06 21:33N 25°47' W 080°10'0 0.0
2016-Dec-06 20:33N 25°47' W 080°10'0 0.0
2016-Dec-06 18:33N 25°47' W 080°10'0 0.0
2016-Dec-06 17:33N 25°47' W 080°10'0 0.0
2016-Dec-06 16:33N 25°47' W 080°10'0 0.0
2016-Dec-06 15:33N 25°47' W 080°10'0 0.0
2016-Dec-06 14:33N 25°47' W 080°10'0 0.0
2016-Dec-06 13:33N 25°47' W 080°10'0 0.0
2016-Dec-06 12:33N 25°47' W 080°10'0 0.0
2016-Dec-06 11:33N 25°47' W 080°10'1 0.5
2016-Dec-06 10:34N 25°47' W 080°11'8 7.5
2016-Dec-06 09:34N 25°47' W 080°03'1111.1
2016-Dec-06 08:34N 25°38' W 079°55'1514.8
2016-Dec-06 07:34N 25°26' W 079°45'49415.4
2016-Dec-04 23:34N 20°34' W 086°57'3 3.1
2016-Dec-04 22:33N 20°31' W 086°57'0 0.0
2016-Dec-04 21:33N 20°31' W 086°57'0 0.0
2016-Dec-04 20:33N 20°31' W 086°57'0 0.0
2016-Dec-04 19:33N 20°31' W 086°57'0 0.0
2016-Dec-04 18:33N 20°31' W 086°57'0 0.0
2016-Dec-04 17:33N 20°31' W 086°57'0 0.0
2016-Dec-04 16:33N 20°31' W 086°57'0 0.0
2016-Dec-04 15:33N 20°31' W 086°57'0 0.0
2016-Dec-04 14:33N 20°31' W 086°57'6 6.5
2016-Dec-04 13:34N 20°28' W 087°04'  
2016-Dec-01 23:33N 09°23' W 079°55'1 1.2
2016-Dec-01 22:25N 09°21' W 079°55'0 0.0
2016-Dec-01 21:31N 09°21' W 079°55'0 0.0
2016-Dec-01 20:31N 09°21' W 079°55'0 0.0
2016-Dec-01 19:33N 09°21' W 079°55'0 0.0
2016-Dec-01 18:33N 09°21' W 079°55'0 0.0
2016-Dec-01 17:20N 09°21' W 079°55'0 0.0
2016-Dec-01 16:32N 09°21' W 079°55'0 0.0
2016-Dec-01 15:31N 09°21' W 079°55'0 0.0
2016-Dec-01 14:31N 09°21' W 079°55'1 0.6
2016-Dec-01 13:33N 09°21' W 079°55'7 6.6
2016-Dec-01 12:33N 09°28' W 079°54'  

Dump ship's entire track history